Enter the Airport ICAO Code

Search by Airport or City

Current Weather

SBRF | Recife/Guararapes–Gilberto Freyre International Airport

Recife, Pernambuco, Brazil

Last Update 2 Minutes Ago

Partly Cloudy Sky

Temperature of 28 ºC

Moderate Winds from SouthEast

Temperature

28 ºC

Dew Point Temperature

21 ºC

Relative Humidity

65.94 %

Wind Direction

SouthEast (150º, Ranging from 110º to 170º)

Wind Velocity

22 km/h (12 kt)

Gusts

None

Visibility

Greater than 10 Kilometers

Sea Level Pressure

1015 hPa (Hectopascals)

Layers of Clouds

30% to 60% of Sky Covered from 762 mts (2500 ft) Above Ground Level.

METAR SBRF 121500Z 15012KT 110V170 9999 SCT025 28/21 Q1015

Weather Forecast

SBRF | Recife/Guararapes–Gilberto Freyre International Airport

Recife, Pernambuco, Brazil

Forecast valid for the next 21 Hours

In the next 2 hours it is expected the begining of:

Partly Cloudy Sky

Light to Moderate Winds from SouthEast

In 7 to 9 hours it is expected the begining of:

Moderate Winds from SouthEast

Maximum Temperature

31 ºC in -1 Hours

Minimum Temperature

25 ºC in 17 Hours

TAF SBRF 120900Z 1212/1312 15013KT 9999 SCT025 TX31/1214Z TN25/1308Z BECMG 1215/1217 15008KT SCT017 FEW025TCU BECMG 1222/1224 15011KT SCT025 RMK PEQ